Time;durP1;ratioP1;P1;durP2;ratioP2;P2;SDS_P1;SDS_P2;PMS_P1;PMS_P2;Temp;Humidity;BMP_temperature;BMP_pressure;BME280_temperature;BME280_humidity;BME280_pressure;Samples;Min_cycle;Max_cycle;Signal;HPM_P1;HPM_P2
2022/08/25 00:00:04;;;;;;;;;;;;;;;30.12;35.65;100222.50;5065795;28;1115;-40
2022/08/25 00:02:29;;;;;;;;;;;;;;;30.07;35.78;100225.03;5059250;28;966;-38
2022/08/25 00:04:54;;;;;;;;;;;;;;;30.10;35.74;100221.88;5069374;28;1177;-41
2022/08/25 00:07:20;;;;;;;;;;;;;;;30.12;35.90;100227.94;5072944;28;961;-38
2022/08/25 00:09:45;;;;;;;;;;;;;;;30.11;35.68;100217.31;5072111;28;1039;-41
2022/08/25 00:12:11;;;;;;;;;;;;;;;30.15;35.57;100213.94;5073950;28;1056;-40
2022/08/25 00:14:36;;;;;;;;;;;;;;;30.15;35.70;100210.38;5075398;28;945;-40
2022/08/25 00:17:02;;;;;;;;;;;;;;;30.18;35.51;100208.06;5074973;28;1167;-41
2022/08/25 00:19:28;;;;;;;;;;;;;;;30.19;35.26;100206.19;5076720;28;1980;-41
2022/08/25 00:21:54;;;;;;;;;;;;;;;30.27;35.33;100195.13;5066884;28;985;-38
2022/08/25 00:24:20;;;;;;;;;;;;;;;30.18;34.97;100185.53;5068782;28;1838;-39
2022/08/25 00:26:46;;;;;;;;;;;;;;;30.23;34.98;100174.06;5070142;28;1027;-39
2022/08/25 00:29:11;;;;;;;;;;;;;;;30.24;34.90;100176.56;5070135;28;981;-41
2022/08/25 00:31:37;;;;;;;;;;;;;;;30.21;34.76;100157.19;5073170;28;1028;-41
2022/08/25 00:34:02;;;;;;;;;;;;;;;30.29;35.00;100146.06;5066288;28;1258;-40
2022/08/25 00:36:27;;;;;;;;;;;;;;;30.24;35.38;100140.47;5074616;28;1009;-37
2022/08/25 00:38:53;;;;;;;;;;;;;;;30.10;35.91;100134.25;5073745;28;1894;-37
2022/08/25 00:41:19;;;;;;;;;;;;;;;29.94;36.97;100128.31;5076191;28;1009;-37
2022/08/25 00:43:51;;;;;;;;;;;;;;;30.03;36.14;100123.47;5065058;28;2838;-37
2022/08/25 00:46:21;;;;;;;;;;;;;;;30.02;35.62;100121.78;5063131;28;1179;-39
2022/08/25 00:48:47;;;;;;;;;;;;;;;30.18;35.74;100121.25;5075388;28;854;-40
2022/08/25 00:51:12;;;;;;;;;;;;;;;30.15;35.70;100126.28;5075681;28;1136;-39
2022/08/25 00:53:38;;;;;;;;;;;;;;;30.26;35.63;100122.09;5058491;28;977;-37
2022/08/25 00:56:03;;;;;;;;;;;;;;;30.29;35.50;100119.78;5051796;28;1198;-38
2022/08/25 00:58:29;;;;;;;;;;;;;;;30.26;35.52;100117.47;5065556;28;1955;-40
2022/08/25 01:00:56;;;;;;;;;;;;;;;30.23;35.30;100123.34;5071227;28;1119;-38
2022/08/25 01:03:22;;;;;;;;;;;;;;;30.18;35.38;100140.25;5068145;28;932;-39
2022/08/25 01:05:47;;;;;;;;;;;;;;;30.28;35.44;100126.22;5073078;28;1061;-38
2022/08/25 01:08:13;;;;;;;;;;;;;;;30.29;35.35;100124.34;5070904;28;1134;-38
2022/08/25 01:10:40;;;;;;;;;;;;;;;30.29;34.99;100119.78;5052460;28;1152;-38
2022/08/25 01:13:11;;;;;;;;;;;;;;;30.26;35.36;100127.50;5046282;28;1203;-39
2022/08/25 01:15:36;;;;;;;;;;;;;;;30.33;34.94;100120.13;5069784;28;1147;-37
2022/08/25 01:18:01;;;;;;;;;;;;;;;30.29;34.94;100114.34;5075943;28;1913;-42
2022/08/25 01:20:28;;;;;;;;;;;;;;;30.29;34.83;100110.78;5064476;28;1028;-38
2022/08/25 01:22:53;;;;;;;;;;;;;;;30.28;34.84;100103.72;5065288;28;922;-41
2022/08/25 01:25:28;;;;;;;;;;;;;;;30.23;34.78;100090.78;5067759;28;1297;-41
2022/08/25 01:27:53;;;;;;;;;;;;;;;30.17;34.93;100084.34;5065737;28;1071;-41
2022/08/25 01:30:19;;;;;;;;;;;;;;;30.18;35.19;100077.03;5070293;28;1116;-38
2022/08/25 01:32:44;;;;;;;;;;;;;;;30.22;34.66;100074.75;5073678;28;1016;-39
2022/08/25 01:35:10;;;;;;;;;;;;;;;30.19;34.84;100074.13;5072743;28;953;-38
2022/08/25 01:37:35;;;;;;;;;;;;;;;30.22;34.56;100075.56;5074246;28;1139;-38
2022/08/25 01:40:00;;;;;;;;;;;;;;;30.22;34.60;100069.31;5074461;28;1902;-40
2022/08/25 01:42:36;;;;;;;;;;;;;;;30.20;34.57;100064.09;5071597;28;1112;-38
2022/08/25 01:45:02;;;;;;;;;;;;;;;30.16;34.85;100057.44;5072163;28;1071;-38
2022/08/25 01:47:27;;;;;;;;;;;;;;;30.17;34.52;100053.66;5055928;28;1124;-37
2022/08/25 01:49:53;;;;;;;;;;;;;;;30.09;34.58;100051.22;5074285;28;1163;-39
2022/08/25 01:52:20;;;;;;;;;;;;;;;30.09;34.78;100057.50;5075504;28;949;-39
2022/08/25 01:54:45;;;;;;;;;;;;;;;30.15;34.71;100064.75;5065447;28;1514;-41
2022/08/25 01:57:10;;;;;;;;;;;;;;;30.16;34.44;100060.97;5066361;28;1071;-40
2022/08/25 01:59:36;;;;;;;;;;;;;;;30.19;34.50;100059.72;5066633;28;1964;-42
2022/08/25 02:02:01;;;;;;;;;;;;;;;30.15;34.54;100059.31;5069876;28;1060;-40
2022/08/25 02:04:30;;;;;;;;;;;;;;;30.10;34.52;100059.16;5072390;28;1040;-38
2022/08/25 02:06:56;;;;;;;;;;;;;;;30.12;34.76;100057.06;5067929;28;1203;-39
2022/08/25 02:09:22;;;;;;;;;;;;;;;30.12;34.57;100059.75;5070497;28;969;-38
2022/08/25 02:11:47;;;;;;;;;;;;;;;30.17;34.63;100059.09;5071210;28;1152;-40
2022/08/25 02:14:13;;;;;;;;;;;;;;;30.14;34.33;100057.66;5075141;28;1110;-39
2022/08/25 02:16:38;;;;;;;;;;;;;;;30.11;34.43;100052.69;5073097;28;1163;-40
2022/08/25 02:19:05;;;;;;;;;;;;;;;30.09;34.41;100054.78;5065401;28;1898;-38
2022/08/25 02:21:31;;;;;;;;;;;;;;;30.13;34.32;100052.47;5068347;28;1008;-38
2022/08/25 02:23:56;;;;;;;;;;;;;;;30.18;34.24;100052.59;5066401;28;961;-38
2022/08/25 02:26:21;;;;;;;;;;;;;;;30.12;34.26;100045.38;5071441;28;1056;-39
2022/08/25 02:28:47;;;;;;;;;;;;;;;30.13;33.92;100052.47;5068546;28;1147;-41
2022/08/25 02:31:12;;;;;;;;;;;;;;;30.11;34.15;100052.69;5072896;28;1076;-41
2022/08/25 02:33:38;;;;;;;;;;;;;;;30.11;34.00;100055.41;5070014;28;1119;-40
2022/08/25 02:36:03;;;;;;;;;;;;;;;30.09;34.04;100053.94;5074262;28;1004;-38
2022/08/25 02:38:28;;;;;;;;;;;;;;;30.13;33.77;100053.28;5074834;28;1894;-40
2022/08/25 02:40:54;;;;;;;;;;;;;;;30.06;34.06;100047.91;5069641;28;1395;-37
2022/08/25 02:43:19;;;;;;;;;;;;;;;30.05;33.86;100042.69;5068862;28;938;-40
2022/08/25 02:45:45;;;;;;;;;;;;;;;29.98;33.59;100048.16;5069852;28;1096;-40
2022/08/25 02:48:10;;;;;;;;;;;;;;;29.79;36.34;100034.56;5073618;28;1089;-41
2022/08/25 02:50:35;;;;;;;;;;;;;;;29.68;36.60;100032.53;5076465;28;1087;-39
2022/08/25 02:53:01;;;;;;;;;;;;;;;29.72;36.47;100039.19;5069285;28;934;-41
2022/08/25 02:55:26;;;;;;;;;;;;;;;29.67;37.37;100036.28;5071148;28;961;-38
2022/08/25 02:57:51;;;;;;;;;;;;;;;29.62;37.33;100036.09;5069604;28;1902;-40
2022/08/25 03:00:17;;;;;;;;;;;;;;;29.45;36.12;100033.88;5070166;28;1219;-39
2022/08/25 03:02:42;;;;;;;;;;;;;;;29.46;37.26;100043.69;5069603;28;1346;-37
2022/08/25 03:05:08;;;;;;;;;;;;;;;29.48;37.62;100040.75;5073081;28;1119;-39
2022/08/25 03:07:34;;;;;;;;;;;;;;;29.49;37.64;100045.97;5076429;28;1044;-43
2022/08/25 03:10:02;;;;;;;;;;;;;;;29.51;37.43;100048.44;5056755;28;1264;-39
2022/08/25 03:12:28;;;;;;;;;;;;;;;29.48;37.90;100060.53;5074174;28;1122;-40
2022/08/25 03:14:53;;;;;;;;;;;;;;;29.47;37.81;100058.88;5075840;28;1009;-43
2022/08/25 03:17:19;;;;;;;;;;;;;;;29.48;38.05;100060.53;5067325;28;1004;-38
2022/08/25 03:19:45;;;;;;;;;;;;;;;29.39;37.33;100065.38;5052748;28;1921;-38
2022/08/25 03:22:10;;;;;;;;;;;;;;;29.42;37.14;100077.66;5061532;28;1243;-39
2022/08/25 03:24:35;;;;;;;;;;;;;;;29.41;38.04;100082.25;5074031;28;1036;-39
2022/08/25 03:27:01;;;;;;;;;;;;;;;29.43;38.12;100077.44;5071252;28;1166;-40
2022/08/25 03:29:28;;;;;;;;;;;;;;;29.40;38.33;100090.59;5070051;28;1014;-40
2022/08/25 03:31:54;;;;;;;;;;;;;;;29.43;37.94;100082.88;5057910;28;1282;-41
2022/08/25 03:34:19;;;;;;;;;;;;;;;29.52;38.65;100086.16;5071553;28;996;-44
2022/08/25 03:36:45;;;;;;;;;;;;;;;26.19;43.88;100088.13;5077291;28;1170;-43
2022/08/25 03:39:11;;;;;;;;;;;;;;;24.68;47.96;100091.78;5072377;28;1909;-48
2022/08/25 03:41:36;;;;;;;;;;;;;;;23.99;50.33;100093.47;5070103;28;945;-47
2022/08/25 03:44:02;;;;;;;;;;;;;;;25.33;49.34;100085.06;5071045;28;1033;-44
2022/08/25 03:46:29;;;;;;;;;;;;;;;26.35;46.29;100074.41;5076103;28;1250;-44
2022/08/25 03:48:54;;;;;;;;;;;;;;;26.61;45.67;100077.53;5077902;28;1091;-47
2022/08/25 03:51:20;;;;;;;;;;;;;;;26.97;44.73;100083.78;5068098;28;969;-46
2022/08/25 03:53:46;;;;;;;;;;;;;;;26.89;45.23;100082.09;5070716;28;1013;-45
2022/08/25 03:56:12;;;;;;;;;;;;;;;27.07;44.80;100084.28;5070986;28;992;-45
2022/08/25 03:58:37;;;;;;;;;;;;;;;27.60;43.45;100085.56;5070937;28;1994;-44
2022/08/25 04:01:02;;;;;;;;;;;;;;;26.92;45.01;100091.63;5074164;28;1005;-45
2022/08/25 04:03:27;;;;;;;;;;;;;;;27.39;43.94;100087.34;5070497;28;1313;-40
2022/08/25 04:05:53;;;;;;;;;;;;;;;27.76;42.68;100086.25;5075700;28;1421;-40
2022/08/25 04:08:18;;;;;;;;;;;;;;;28.07;43.14;100092.16;5067311;28;2908;-41
2022/08/25 04:10:43;;;;;;;;;;;;;;;22.72;53.61;100086.03;5068770;28;2096;-41
2022/08/25 04:13:09;;;;;;;;;;;;;;;21.84;55.19;100089.09;5070966;28;1789;-41
2022/08/25 04:15:34;;;;;;;;;;;;;;;24.49;51.62;100083.19;5065128;28;2324;-39
2022/08/25 04:18:00;;;;;;;;;;;;;;;26.40;45.62;100074.66;5050850;28;2115;-41
2022/08/25 04:20:25;;;;;;;;;;;;;;;27.30;43.03;100088.56;5062442;28;2042;-42
2022/08/25 04:22:50;;;;;;;;;;;;;;;27.68;42.36;100086.41;5061213;28;2057;-42
2022/08/25 04:25:15;;;;;;;;;;;;;;;27.98;41.35;100091.50;5068243;28;1280;-40
2022/08/25 04:27:41;;;;;;;;;;;;;;;24.70;47.86;100090.59;5073018;28;1039;-39
2022/08/25 04:30:06;;;;;;;;;;;;;;;22.30;53.63;100088.72;5053047;28;1108;-39
2022/08/25 04:32:32;;;;;;;;;;;;;;;21.56;56.23;100089.34;5074442;28;1044;-38
2022/08/25 04:34:57;;;;;;;;;;;;;;;22.19;60.38;100086.34;5073974;28;1048;-40
2022/08/25 04:37:23;;;;;;;;;;;;;;;25.21;48.62;100082.84;5075252;28;1024;-39
2022/08/25 04:39:48;;;;;;;;;;;;;;;26.58;44.41;100077.91;5076262;28;1902;-41
2022/08/25 04:42:13;;;;;;;;;;;;;;;27.35;43.35;100083.38;5066230;28;953;-38
2022/08/25 04:44:38;;;;;;;;;;;;;;;27.68;41.90;100076.47;5074573;28;1175;-39
2022/08/25 04:47:04;;;;;;;;;;;;;;;27.98;41.28;100073.41;5069993;28;1024;-39
2022/08/25 04:49:30;;;;;;;;;;;;;;;22.98;52.00;100074.25;5068056;28;945;-40
2022/08/25 04:51:56;;;;;;;;;;;;;;;21.69;55.22;100070.97;5068598;28;1048;-41
2022/08/25 04:54:21;;;;;;;;;;;;;;;21.61;60.49;100070.94;5069925;28;2530;-42
2022/08/25 04:56:48;;;;;;;;;;;;;;;25.00;49.70;100086.28;5069714;28;1060;-39
2022/08/25 04:59:13;;;;;;;;;;;;;;;22.18;54.28;100077.47;5068667;28;1894;-37
2022/08/25 05:01:39;;;;;;;;;;;;;;;21.72;56.07;100080.53;5053214;28;1219;-39
2022/08/25 05:04:05;;;;;;;;;;;;;;;21.29;56.71;100078.69;5074511;28;969;-41
2022/08/25 05:06:30;;;;;;;;;;;;;;;24.01;52.54;100076.16;5074646;28;1155;-39
2022/08/25 05:08:56;;;;;;;;;;;;;;;23.18;51.91;100068.50;5076121;28;1050;-36
2022/08/25 05:11:21;;;;;;;;;;;;;;;21.73;56.29;100058.09;5062413;28;1198;-38
2022/08/25 05:13:47;;;;;;;;;;;;;;;21.47;57.69;100057.19;5065502;28;965;-43
2022/08/25 05:16:12;;;;;;;;;;;;;;;21.23;58.31;100053.44;5071515;28;997;-41
2022/08/25 05:18:37;;;;;;;;;;;;;;;21.11;58.61;100054.69;5067945;28;1901;-38
2022/08/25 05:21:06;;;;;;;;;;;;;;;22.97;58.09;100065.34;5072787;28;1035;-37
2022/08/25 05:23:32;;;;;;;;;;;;;;;25.71;48.74;100060.69;5068744;28;1174;-36
2022/08/25 05:26:00;;;;;;;;;;;;;;;27.18;45.89;100061.28;5073607;28;1147;-39
2022/08/25 05:28:25;;;;;;;;;;;;;;;22.60;55.21;100053.34;5072574;28;1143;-38
2022/08/25 05:30:51;;;;;;;;;;;;;;;21.75;57.67;100050.75;5075195;28;1000;-37
2022/08/25 05:33:17;;;;;;;;;;;;;;;21.40;59.21;100046.28;5057432;28;1244;-36
2022/08/25 05:35:42;;;;;;;;;;;;;;;21.31;59.63;100057.97;5061147;28;1016;-38
2022/08/25 05:38:07;;;;;;;;;;;;;;;21.31;59.41;100057.97;5069563;28;1894;-40
2022/08/25 05:40:33;;;;;;;;;;;;;;;23.35;57.66;100058.53;5067707;28;1079;-39
2022/08/25 05:42:58;;;;;;;;;;;;;;;25.93;50.18;100060.72;5069730;28;1024;-39
2022/08/25 05:45:23;;;;;;;;;;;;;;;24.15;51.20;100066.50;5069139;28;1009;-38
2022/08/25 05:47:49;;;;;;;;;;;;;;;21.93;57.95;100053.34;5060864;28;977;-37
2022/08/25 05:50:14;;;;;;;;;;;;;;;21.46;59.42;100058.19;5067456;28;1119;-39
2022/08/25 05:52:40;;;;;;;;;;;;;;;21.37;60.23;100060.00;5070044;28;957;-38
2022/08/25 05:55:05;;;;;;;;;;;;;;;21.20;60.55;100058.25;5067992;28;1076;-34
2022/08/25 05:57:31;;;;;;;;;;;;;;;21.72;65.73;100059.13;5072044;28;965;-38
2022/08/25 05:59:56;;;;;;;;;;;;;;;24.71;53.49;100067.22;5069000;28;1906;-40
2022/08/25 06:02:42;;;;;;;;;;;;;;;26.60;49.50;100073.16;5073202;28;1017;-40
2022/08/25 06:05:08;;;;;;;;;;;;;;;27.36;48.53;100081.53;5072145;28;1092;-39
2022/08/25 06:07:34;;;;;;;;;;;;;;;27.75;47.14;100079.19;5056932;28;1080;-37
2022/08/25 06:10:00;;;;;;;;;;;;;;;27.93;46.96;100083.16;5074828;28;1095;-37
2022/08/25 06:12:25;;;;;;;;;;;;;;;28.05;46.11;100084.25;5066281;28;854;-39
2022/08/25 06:14:50;;;;;;;;;;;;;;;28.08;46.40;100100.06;5050230;28;1138;-39
2022/08/25 06:17:16;;;;;;;;;;;;;;;28.15;47.34;100083.84;5066728;28;997;-39
2022/08/25 06:19:41;;;;;;;;;;;;;;;28.50;46.25;100095.53;5071034;28;1914;-34
2022/08/25 06:22:06;;;;;;;;;;;;;;;28.69;46.12;100083.03;5068244;28;1135;-35
2022/08/25 06:24:32;;;;;;;;;;;;;;;28.85;46.03;100092.59;5070235;28;961;-38
2022/08/25 06:26:57;;;;;;;;;;;;;;;28.89;45.23;100091.13;5073603;28;1245;-37
2022/08/25 06:29:23;;;;;;;;;;;;;;;28.79;45.56;100085.31;5077222;28;1059;-35
2022/08/25 06:31:48;;;;;;;;;;;;;;;28.97;45.86;100095.53;5076846;28;1198;-36
2022/08/25 06:34:14;;;;;;;;;;;;;;;28.89;46.03;100090.28;5065438;28;1035;-36
2022/08/25 06:36:39;;;;;;;;;;;;;;;29.08;45.07;100088.59;5078651;28;917;-43
2022/08/25 06:39:04;;;;;;;;;;;;;;;29.32;45.15;100075.41;5067655;28;1956;-44
2022/08/25 06:41:30;;;;;;;;;;;;;;;29.01;46.30;100075.09;5060847;28;1072;-42
2022/08/25 06:43:56;;;;;;;;;;;;;;;29.05;44.61;100076.34;5061731;28;1216;-44
2022/08/25 06:46:22;;;;;;;;;;;;;;;29.28;44.68;100074.19;5062480;28;1009;-45
2022/08/25 06:48:47;;;;;;;;;;;;;;;29.46;45.10;100082.44;5065940;28;1207;-45
2022/08/25 06:51:13;;;;;;;;;;;;;;;29.36;43.52;100078.53;5070964;28;1008;-46
2022/08/25 06:53:39;;;;;;;;;;;;;;;29.28;44.30;100066.06;5074291;28;1223;-45
2022/08/25 06:56:04;;;;;;;;;;;;;;;29.39;44.29;100078.09;5077380;28;1165;-41
2022/08/25 06:58:30;;;;;;;;;;;;;;;29.69;44.00;100061.31;5078260;28;1951;-38
2022/08/25 07:00:55;;;;;;;;;;;;;;;29.78;45.50;100078.97;5070748;28;1032;-37
2022/08/25 07:03:20;;;;;;;;;;;;;;;26.53;49.82;100059.59;5068970;28;1064;-38
2022/08/25 07:05:52;;;;;;;;;;;;;;;23.81;55.18;100065.88;5073592;28;1052;-37
2022/08/25 07:08:18;;;;;;;;;;;;;;;22.63;57.34;100059.25;5066532;28;965;-43
2022/08/25 07:10:43;;;;;;;;;;;;;;;22.55;58.03;100061.06;5074776;28;1291;-42
2022/08/25 07:13:08;;;;;;;;;;;;;;;22.41;58.54;100052.69;5066164;28;1307;-42
2022/08/25 07:15:36;;;;;;;;;;;;;;;22.33;58.81;100058.03;5076221;28;1028;-42
2022/08/25 07:18:02;;;;;;;;;;;;;;;22.19;58.73;100056.88;5066307;28;2222;-42
2022/08/25 07:20:28;;;;;;;;;;;;;;;22.25;59.54;100058.88;5069249;28;1226;-42
2022/08/25 07:22:54;;;;;;;;;;;;;;;22.23;59.50;100064.41;5069360;28;1147;-42
2022/08/25 07:25:20;;;;;;;;;;;;;;;22.18;59.92;100056.03;5073212;28;852;-42
2022/08/25 07:27:45;;;;;;;;;;;;;;;22.22;60.43;100073.44;5071860;28;1131;-42
2022/08/25 07:30:10;;;;;;;;;;;;;;;24.94;55.45;100083.31;5075923;28;997;-42
2022/08/25 07:32:36;;;;;;;;;;;;;;;23.85;54.41;100075.25;5075860;28;1131;-42
2022/08/25 07:35:16;;;;;;;;;;;;;;;22.32;58.39;100067.91;5076428;28;981;-43
2022/08/25 07:37:51;;;;;;;;;;;;;;;22.03;59.63;100071.94;5072701;28;910;-43
2022/08/25 07:40:16;;;;;;;;;;;;;;;22.04;60.51;100072.78;5071431;28;950;-42
2022/08/25 07:42:42;;;;;;;;;;;;;;;22.22;60.33;100061.91;5069933;28;1059;-43
2022/08/25 07:45:09;;;;;;;;;;;;;;;22.33;59.46;100060.72;5077180;28;1012;-41
2022/08/25 07:47:34;;;;;;;;;;;;;;;22.01;59.61;100057.84;5076863;28;1112;-42
2022/08/25 07:50:00;;;;;;;;;;;;;;;21.84;59.46;100067.69;5071757;28;860;-42
2022/08/25 07:52:26;;;;;;;;;;;;;;;21.74;59.47;100059.78;5058210;28;1012;-42
2022/08/25 07:54:53;;;;;;;;;;;;;;;21.71;59.83;100063.63;5071349;28;1149;-42
2022/08/25 07:57:21;;;;;;;;;;;;;;;21.70;59.55;100067.31;5074604;28;988;-41
2022/08/25 07:59:46;;;;;;;;;;;;;;;23.73;57.95;100060.56;5055222;28;1898;-43
2022/08/25 08:02:11;;;;;;;;;;;;;;;26.17;51.10;100061.38;5061698;28;1088;-45
2022/08/25 08:04:36;;;;;;;;;;;;;;;27.34;47.54;100062.81;5066040;28;1052;-44
2022/08/25 08:07:02;;;;;;;;;;;;;;;22.83;55.55;100055.34;5069364;28;1096;-44
2022/08/25 08:09:29;;;;;;;;;;;;;;;22.00;58.00;100051.66;5073602;28;1036;-43
2022/08/25 08:11:55;;;;;;;;;;;;;;;21.80;58.64;100040.44;5072172;28;1079;-45
2022/08/25 08:14:20;;;;;;;;;;;;;;;21.70;58.69;100039.69;5072917;28;1088;-43
2022/08/25 08:16:45;;;;;;;;;;;;;;;;;;5074764;28;1211;-43
2022/08/25 08:19:11;;;;;;;;;;;;;;;21.59;58.80;100035.47;5076488;28;1960;-43
2022/08/25 08:21:36;;;;;;;;;;;;;;;21.81;63.45;100031.38;5074551;28;942;-43
2022/08/25 08:24:02;;;;;;;;;;;;;;;24.90;52.71;100038.97;5066680;28;946;-43
2022/08/25 08:26:28;;;;;;;;;;;;;;;22.58;55.32;100020.50;5065584;28;1085;-43
2022/08/25 08:28:53;;;;;;;;;;;;;;;21.40;57.32;100021.41;5068113;28;969;-43
2022/08/25 08:31:19;;;;;;;;;;;;;;;21.22;58.98;100022.31;5073208;28;1068;-43
2022/08/25 08:33:45;;;;;;;;;;;;;;;21.20;59.39;100012.78;5070365;28;1128;-43
2022/08/25 08:36:11;;;;;;;;;;;;;;;21.16;59.41;100010.44;5074026;28;1056;-43
2022/08/25 08:38:36;;;;;;;;;;;;;;;21.08;59.72;100010.41;5073913;28;1899;-43
2022/08/25 08:43:50;;;;;;;;;;;;;;;23.15;56.91;100009.81;5071954;28;989;-43
2022/08/25 08:46:16;;;;;;;;;;;;;;;25.50;49.70;100011.16;5055821;28;1262;-44
2022/08/25 08:48:43;;;;;;;;;;;;;;;26.65;46.20;100009.50;5055444;28;1086;-43
2022/08/25 08:51:11;;;;;;;;;;;;;;;27.22;45.43;100026.63;5074455;28;949;-44
2022/08/25 08:53:43;;;;;;;;;;;;;;;27.57;44.01;100023.00;5067708;28;953;-44
2022/08/25 08:56:08;;;;;;;;;;;;;;;27.84;43.53;100028.50;5069575;28;901;-43
2022/08/25 08:58:34;;;;;;;;;;;;;;;28.03;44.86;100029.53;5057914;28;1890;-43
2022/08/25 09:01:00;;;;;;;;;;;;;;;28.09;43.06;100020.59;5068513;28;997;-44
2022/08/25 09:03:28;;;;;;;;;;;;;;;28.24;42.93;100028.50;5070213;28;1147;-44
2022/08/25 09:05:55;;;;;;;;;;;;;;;28.38;42.39;100022.31;5073945;28;1020;-43
2022/08/25 09:08:20;;;;;;;;;;;;;;;28.40;42.27;100021.03;5055234;28;1242;-43
2022/08/25 09:11:07;;;;;;;;;;;;;;;28.57;42.80;100021.44;5074963;28;1386;-44
2022/08/25 09:13:35;;;;;;;;;;;;;;;28.67;41.51;100015.59;5069648;28;1123;-44
2022/08/25 09:18:54;;;;;;;;;;;;;;;28.90;41.48;100008.88;5059456;28;1894;-43
2022/08/25 09:21:28;;;;;;;;;;;;;;;28.91;40.65;100010.53;5071470;28;1020;-44
2022/08/25 09:24:12;;;;;;;;;;;;;;;28.85;40.91;100008.69;5067049;28;1100;-44
2022/08/25 09:26:44;;;;;;;;;;;;;;;28.79;43.08;100009.53;5070505;28;1425;-43
2022/08/25 09:29:12;;;;;;;;;;;;;;;29.03;40.87;99993.66;5052691;28;1099;-43
2022/08/25 09:31:38;;;;;;;;;;;;;;;28.95;41.23;99997.41;5055202;28;1451;-44
2022/08/25 09:34:06;;;;;;;;;;;;;;;28.81;41.78;99989.31;5072538;28;1103;-43
2022/08/25 09:36:32;;;;;;;;;;;;;;;28.83;41.40;99994.50;5074271;28;1008;-43
2022/08/25 09:38:58;;;;;;;;;;;;;;;29.28;41.89;99987.50;5072998;28;1906;-43
2022/08/25 09:41:43;;;;;;;;;;;;;;;29.40;41.03;99984.91;5069443;28;1392;-43
2022/08/25 09:44:29;;;;;;;;;;;;;;;29.37;40.99;99996.19;5069064;28;997;-43
2022/08/25 09:46:56;;;;;;;;;;;;;;;29.51;40.77;99992.34;5056399;28;1424;-44
2022/08/25 09:49:21;;;;;;;;;;;;;;;29.50;40.85;100003.41;5069868;28;1198;-46
2022/08/25 09:51:47;;;;;;;;;;;;;;;29.81;40.47;99996.38;5051065;28;1346;-44
2022/08/25 09:54:12;;;;;;;;;;;;;;;29.92;41.13;100000.25;5051720;28;1021;-46
2022/08/25 09:56:48;;;;;;;;;;;;;;;29.88;40.16;100001.75;5064821;28;1206;-44
2022/08/25 09:59:16;;;;;;;;;;;;;;;29.91;40.25;100006.72;5071107;28;1882;-44
2022/08/25 10:01:48;;;;;;;;;;;;;;;25.94;48.70;100003.13;5070170;28;1151;-44
2022/08/25 10:04:14;;;;;;;;;;;;;;;23.45;53.36;100000.16;5072190;28;1064;-43
2022/08/25 10:06:43;;;;;;;;;;;;;;;22.96;54.11;99998.47;5063648;28;1323;-43
2022/08/25 10:09:08;;;;;;;;;;;;;;;22.59;55.39;99998.03;5058162;28;989;-45
2022/08/25 10:11:39;;;;;;;;;;;;;;;22.46;55.55;99991.38;5056761;28;1296;-42
2022/08/25 10:14:18;;;;;;;;;;;;;;;22.42;55.97;99986.53;5077138;28;850;-43
2022/08/25 10:16:43;;;;;;;;;;;;;;;22.42;56.25;99975.81;5077296;28;1143;-46
2022/08/25 10:19:22;;;;;;;;;;;;;;;22.24;56.66;99979.50;5079003;28;1926;-45
2022/08/25 10:22:02;;;;;;;;;;;;;;;22.24;57.21;99982.19;5075559;28;1168;-44
2022/08/25 10:24:28;;;;;;;;;;;;;;;24.33;54.70;99988.28;5072980;28;949;-45
2022/08/25 10:27:01;;;;;;;;;;;;;;;25.60;49.78;99981.22;5070250;28;965;-43
2022/08/25 10:29:45;;;;;;;;;;;;;;;22.34;55.23;99985.53;5058949;28;990;-43
2022/08/25 10:32:29;;;;;;;;;;;;;;;21.82;57.28;99992.06;5071238;28;1195;-44
2022/08/25 10:34:55;;;;;;;;;;;;;;;21.77;57.54;99998.72;5076086;28;981;-43
2022/08/25 10:37:20;;;;;;;;;;;;;;;21.83;57.96;99996.41;5071833;28;1091;-43
2022/08/25 10:39:51;;;;;;;;;;;;;;;21.81;58.20;100001.94;5075230;28;1963;-40
2022/08/25 10:42:20;;;;;;;;;;;;;;;21.81;57.96;100001.94;5054683;28;1005;-36
2022/08/25 10:47:37;;;;;;;;;;;;;;;25.37;50.24;100006.44;5070886;28;1029;-39
2022/08/25 10:50:04;;;;;;;;;;;;;;;22.06;55.64;100012.66;5076880;28;850;-37
2022/08/25 10:52:49;;;;;;;;;;;;;;;21.59;57.83;99998.84;5072513;28;1079;-35
2022/08/25 10:55:33;;;;;;;;;;;;;;;21.52;57.90;100011.22;5046086;28;1001;-38
2022/08/25 10:58:17;;;;;;;;;;;;;;;21.57;58.25;100013.41;5071907;28;2210;-36
2022/08/25 11:00:53;;;;;;;;;;;;;;;21.59;58.44;100011.38;5058054;28;1037;-36
2022/08/25 11:03:21;;;;;;;;;;;;;;;21.56;58.56;100017.91;5068127;28;870;-37
2022/08/25 11:05:58;;;;;;;;;;;;;;;24.41;54.30;100014.22;5075795;28;1052;-37
2022/08/25 11:08:41;;;;;;;;;;;;;;;23.59;52.09;100020.00;5055775;28;1167;-37
2022/08/25 11:11:20;;;;;;;;;;;;;;;21.88;56.62;100021.72;5059023;28;1064;-37
2022/08/25 11:13:45;;;;;;;;;;;;;;;21.60;58.07;100016.59;5055189;28;1155;-39
2022/08/25 11:16:12;;;;;;;;;;;;;;;21.55;57.91;100018.09;5076196;28;1100;-39
2022/08/25 11:18:39;;;;;;;;;;;;;;;21.56;58.35;100020.59;5049552;28;1906;-40
2022/08/25 11:21:14;;;;;;;;;;;;;;;21.49;58.48;100020.41;5061004;28;1080;-39
2022/08/25 11:23:41;;;;;;;;;;;;;;;21.41;58.78;100020.38;5051793;28;1002;-39
2022/08/25 11:26:07;;;;;;;;;;;;;;;23.38;57.19;100017.94;5072628;28;989;-40
2022/08/25 11:28:48;;;;;;;;;;;;;;;24.94;51.25;100028.69;5055310;28;1068;-40
2022/08/25 11:31:13;;;;;;;;;;;;;;;21.72;56.79;100016.28;5058419;28;996;-41
2022/08/25 11:33:39;;;;;;;;;;;;;;;21.56;58.04;100009.91;5060187;28;981;-44
2022/08/25 11:36:17;;;;;;;;;;;;;;;21.36;57.90;100007.50;5060756;28;1123;-40
2022/08/25 11:39:12;;;;;;;;;;;;;;;21.32;58.48;100002.63;5057645;28;1969;-41
2022/08/25 11:41:45;;;;;;;;;;;;;;;21.23;58.88;100002.63;5039586;28;1345;-42
2022/08/25 11:44:11;;;;;;;;;;;;;;;21.28;59.68;100004.78;5070136;28;1286;-39
2022/08/25 11:46:42;;;;;;;;;;;;;;;24.18;53.33;100006.19;5063343;28;1286;-38
2022/08/25 11:49:18;;;;;;;;;;;;;;;23.42;52.07;100011.22;5066511;28;1100;-38
2022/08/25 11:51:45;;;;;;;;;;;;;;;21.59;57.57;100004.22;5066602;28;1095;-39
2022/08/25 11:54:13;;;;;;;;;;;;;;;21.22;58.60;100002.78;5067921;28;1128;-39
2022/08/25 11:56:40;;;;;;;;;;;;;;;21.22;58.58;100008.94;5068463;28;1052;-38
2022/08/25 11:59:06;;;;;;;;;;;;;;;21.12;58.96;100005.59;5075389;28;1953;-39
2022/08/25 12:01:43;;;;;;;;;;;;;;;21.12;59.17;100006.41;5075914;28;954;-41
2022/08/25 12:04:12;;;;;;;;;;;;;;;21.56;64.47;100001.88;5064640;28;1080;-42
2022/08/25 12:06:37;;;;;;;;;;;;;;;24.67;51.61;100015.63;5077341;28;1147;-43
2022/08/25 12:09:02;;;;;;;;;;;;;;;26.27;46.77;100005.28;5040556;28;1226;-42
2022/08/25 12:11:37;;;;;;;;;;;;;;;26.90;45.14;100002.78;5071370;28;1072;-40
2022/08/25 12:14:20;;;;;;;;;;;;;;;27.53;43.75;100013.66;5066771;28;1151;-38
2022/08/25 12:16:52;;;;;;;;;;;;;;;27.83;43.24;100022.25;5073001;28;1131;-39
2022/08/25 12:19:35;;;;;;;;;;;;;;;27.88;41.03;100013.50;5066532;28;1976;-38
2022/08/25 12:22:01;;;;;;;;;;;;;;;28.13;41.44;100015.63;5073260;28;1139;-41
2022/08/25 12:24:41;;;;;;;;;;;;;;;28.27;42.22;100011.03;5064848;28;1402;-40
2022/08/25 12:27:25;;;;;;;;;;;;;;;28.44;41.77;100010.66;5061666;28;1128;-38
2022/08/25 12:30:11;;;;;;;;;;;;;;;28.63;41.50;100010.84;5060833;28;1139;-39
2022/08/25 12:32:55;;;;;;;;;;;;;;;28.75;41.85;100009.13;5068334;28;1416;-39
2022/08/25 12:35:33;;;;;;;;;;;;;;;28.99;41.28;100006.78;5057901;28;1137;-40
2022/08/25 12:38:03;;;;;;;;;;;;;;;28.91;41.73;99996.19;5056273;28;1068;-40
2022/08/25 12:40:28;;;;;;;;;;;;;;;29.06;41.91;99994.03;5041628;28;1016;-39
2022/08/25 12:43:23;;;;;;;;;;;;;;;29.16;41.39;100007.13;5069367;28;1124;-41
2022/08/25 12:45:49;;;;;;;;;;;;;;;29.16;41.29;100000.91;5048280;28;1360;-41
2022/08/25 12:48:26;;;;;;;;;;;;;;;29.21;42.37;100010.03;5074615;28;965;-40
2022/08/25 12:50:56;;;;;;;;;;;;;;;29.25;41.06;100012.28;5072039;28;823;-39
2022/08/25 12:53:34;;;;;;;;;;;;;;;29.17;40.64;99997.13;5054175;28;1075;-38
2022/08/25 12:56:00;;;;;;;;;;;;;;;29.19;42.08;100014.84;5056084;28;985;-36
2022/08/25 12:58:28;;;;;;;;;;;;;;;29.28;40.83;100007.28;5056980;28;1897;-36
2022/08/25 13:01:12;;;;;;;;;;;;;;;29.51;40.39;100005.91;5045318;28;1145;-36